createdAt,value
2022-10-02T00:00:35.074Z,12.84
2022-10-02T00:03:24.436Z,12.91
2022-10-02T00:06:00.417Z,12.93
2022-10-02T00:08:32.196Z,12.97
2022-10-02T00:11:05.099Z,12.99
2022-10-02T00:13:41.331Z,13.02
2022-10-02T00:16:15.823Z,13.04
2022-10-02T00:18:44.848Z,13.02
2022-10-02T00:21:28.587Z,12.96
2022-10-02T00:23:59.401Z,12.89
2022-10-02T00:26:31.197Z,12.86
2022-10-02T00:29:09.356Z,12.93
2022-10-02T00:31:42.575Z,12.99
2022-10-02T00:34:17.726Z,13.01
2022-10-02T00:36:54.634Z,12.93
2022-10-02T00:39:32.562Z,12.90
2022-10-02T00:42:33.307Z,13.01
2022-10-02T00:45:41.593Z,12.97
2022-10-02T00:48:33.288Z,12.97
2022-10-02T00:51:10.749Z,12.97
2022-10-02T00:53:47.340Z,12.94
2022-10-02T00:56:26.144Z,12.92
2022-10-02T00:59:20.393Z,12.82
2022-10-02T01:04:30.547Z,12.74
2022-10-02T01:06:58.370Z,12.74
2022-10-02T01:09:26.100Z,12.74
2022-10-02T01:11:54.173Z,12.66
2022-10-02T01:14:31.986Z,12.65
2022-10-02T01:17:01.363Z,12.61
2022-10-02T01:19:37.308Z,12.48
2022-10-02T01:22:14.929Z,12.39
2022-10-02T01:24:51.110Z,12.46
2022-10-02T01:27:19.324Z,12.40
2022-10-02T01:29:52.391Z,12.51
2022-10-02T01:32:20.305Z,12.45
2022-10-02T01:34:48.296Z,12.38
2022-10-02T01:37:15.609Z,12.41
2022-10-02T01:39:42.992Z,12.44
2022-10-02T01:42:12.091Z,12.43
2022-10-02T01:44:39.505Z,12.43
2022-10-02T01:47:12.132Z,12.42
2022-10-02T01:49:56.073Z,12.34
2022-10-02T01:52:37.261Z,12.34
2022-10-02T01:55:22.248Z,12.36
2022-10-02T01:57:59.857Z,12.38
2022-10-02T02:00:38.199Z,12.43
2022-10-02T02:03:16.541Z,12.26
2022-10-02T02:05:46.971Z,12.37
2022-10-02T02:08:23.602Z,12.49
2022-10-02T02:11:01.702Z,12.41
2022-10-02T02:13:33.970Z,12.42
2022-10-02T02:16:08.108Z,12.28
2022-10-02T02:18:42.010Z,12.33
2022-10-02T02:21:14.815Z,12.33
2022-10-02T02:23:43.832Z,12.38
2022-10-02T02:26:18.267Z,12.27
2022-10-02T02:28:52.233Z,12.29
2022-10-02T02:31:24.596Z,12.24
2022-10-02T02:33:56.075Z,12.22
2022-10-02T02:36:28.660Z,12.27
2022-10-02T02:39:01.908Z,12.27
2022-10-02T02:41:34.783Z,12.11
2022-10-02T02:44:08.701Z,12.17
2022-10-02T02:46:39.983Z,12.21
2022-10-02T02:49:10.646Z,12.16
2022-10-02T02:51:43.341Z,12.04
2022-10-02T02:54:15.909Z,12.07
2022-10-02T02:56:48.691Z,12.02
2022-10-02T02:59:20.865Z,12.02
2022-10-02T03:01:48.700Z,11.99
2022-10-02T03:04:16.023Z,12.01
2022-10-02T03:06:46.138Z,11.95
2022-10-02T03:09:16.899Z,12.01
2022-10-02T03:11:52.748Z,11.91
2022-10-02T03:14:54.682Z,11.90
2022-10-02T03:17:35.952Z,12.03
2022-10-02T03:20:11.910Z,12.08
2022-10-02T03:22:58.893Z,12.17
2022-10-02T03:25:33.060Z,12.15
2022-10-02T03:28:06.775Z,12.22
2022-10-02T03:30:38.287Z,12.29
2022-10-02T03:33:07.626Z,12.36
2022-10-02T03:35:35.742Z,12.41
2022-10-02T03:38:05.950Z,12.42
2022-10-02T03:40:33.662Z,12.48
2022-10-02T03:43:01.916Z,12.53
2022-10-02T03:45:49.958Z,12.50
2022-10-02T03:48:18.937Z,12.61
2022-10-02T03:50:46.822Z,12.56
2022-10-02T03:53:16.460Z,12.69
2022-10-02T03:55:48.180Z,12.67
2022-10-02T03:58:17.368Z,12.61
2022-10-02T04:00:52.998Z,12.66
2022-10-02T04:03:26.249Z,12.68
2022-10-02T04:05:59.874Z,12.78
2022-10-02T04:08:31.827Z,12.72
2022-10-02T04:11:06.514Z,12.72
2022-10-02T04:13:39.875Z,12.75
2022-10-02T04:16:12.868Z,12.76
2022-10-02T04:18:50.543Z,12.74
2022-10-02T04:21:29.770Z,12.65
2022-10-02T04:24:02.911Z,12.60
2022-10-02T04:26:35.182Z,12.46
2022-10-02T04:29:12.044Z,12.48
2022-10-02T04:31:40.090Z,12.47
2022-10-02T04:34:13.160Z,12.37
2022-10-02T04:36:56.902Z,12.36
2022-10-02T04:39:55.333Z,12.38
2022-10-02T04:42:33.007Z,12.36
2022-10-02T04:45:20.836Z,12.29
2022-10-02T04:48:21.568Z,12.17
2022-10-02T04:50:58.555Z,12.22
2022-10-02T04:53:43.596Z,12.27
2022-10-02T04:56:36.993Z,12.07
2022-10-02T04:59:21.027Z,12.13
2022-10-02T05:01:58.595Z,12.24
2022-10-02T05:04:50.114Z,12.23
2022-10-02T05:07:44.965Z,12.18
2022-10-02T05:10:32.914Z,12.15
2022-10-02T05:13:14.878Z,12.27
2022-10-02T05:15:55.316Z,12.31
2022-10-02T05:18:43.610Z,12.39
2022-10-02T05:21:39.825Z,12.44
2022-10-02T05:24:32.614Z,12.52
2022-10-02T05:27:28.579Z,12.62
2022-10-02T05:30:08.663Z,12.66
2022-10-02T05:32:54.797Z,12.61
2022-10-02T05:35:36.506Z,12.55
2022-10-02T05:38:15.103Z,12.53
2022-10-02T05:40:51.471Z,12.66
2022-10-02T05:43:29.785Z,12.76
2022-10-02T05:46:01.811Z,12.67
2022-10-02T05:48:38.334Z,12.72
2022-10-02T05:51:10.878Z,12.82
2022-10-02T05:53:45.432Z,12.77
2022-10-02T05:56:18.785Z,12.84
2022-10-02T05:58:54.025Z,12.85
2022-10-02T06:01:26.390Z,12.97
2022-10-02T06:04:03.776Z,13.03
2022-10-02T06:06:36.576Z,12.99
2022-10-02T06:09:15.421Z,12.99
2022-10-02T06:11:50.278Z,13.03
2022-10-02T06:14:24.831Z,13.11
2022-10-02T06:16:59.376Z,13.08
2022-10-02T06:19:32.311Z,13.10
2022-10-02T06:22:06.385Z,13.37
2022-10-02T06:24:39.120Z,13.53
2022-10-02T06:27:15.249Z,13.57
2022-10-02T06:29:45.954Z,13.71
2022-10-02T06:32:30.659Z,14.03
2022-10-02T06:34:59.119Z,14.14
2022-10-02T06:37:39.381Z,14.11
2022-10-02T06:40:23.863Z,14.19
2022-10-02T06:43:02.125Z,14.28
2022-10-02T06:45:33.430Z,14.42
2022-10-02T06:48:04.431Z,14.37
2022-10-02T06:50:41.855Z,14.33
2022-10-02T06:53:20.922Z,14.44
2022-10-02T06:55:56.917Z,14.55
2022-10-02T06:58:47.646Z,14.55
2022-10-02T07:01:22.288Z,14.77
2022-10-02T07:04:08.183Z,14.96
2022-10-02T07:06:46.001Z,15.07
2022-10-02T07:09:42.891Z,15.14
2022-10-02T07:12:18.283Z,15.32
2022-10-02T07:15:03.000Z,15.50
2022-10-02T07:17:42.270Z,15.69
2022-10-02T07:20:29.109Z,15.80
2022-10-02T07:23:29.846Z,15.97
2022-10-02T07:26:26.820Z,16.22
2022-10-02T07:29:04.914Z,16.49
2022-10-02T07:31:46.319Z,16.44
2022-10-02T07:34:24.589Z,16.09
2022-10-02T07:37:02.240Z,15.72
2022-10-02T07:39:43.045Z,15.69
2022-10-02T07:42:32.865Z,15.73
2022-10-02T07:45:33.875Z,15.59
2022-10-02T07:48:18.114Z,15.41
2022-10-02T07:50:59.808Z,15.28
2022-10-02T07:53:33.218Z,15.30
2022-10-02T07:56:01.095Z,15.13
2022-10-02T07:58:35.439Z,15.10
2022-10-02T08:01:08.559Z,15.23
2022-10-02T08:03:43.044Z,15.35
2022-10-02T08:06:11.459Z,15.70
2022-10-02T08:08:45.770Z,16.16
2022-10-02T08:11:17.204Z,16.02
2022-10-02T08:13:49.601Z,15.90
2022-10-02T08:16:19.845Z,15.76
2022-10-02T08:18:54.592Z,15.63
2022-10-02T08:21:24.407Z,15.50
2022-10-02T08:23:59.393Z,15.43
2022-10-02T08:26:35.391Z,15.60
2022-10-02T08:29:09.476Z,15.71
2022-10-02T08:31:38.347Z,16.05
2022-10-02T08:34:16.540Z,16.46
2022-10-02T08:37:14.605Z,16.50
2022-10-02T08:40:14.477Z,16.37
2022-10-02T08:43:17.988Z,16.62
2022-10-02T08:46:21.151Z,16.82
2022-10-02T08:49:27.896Z,16.60
2022-10-02T08:52:39.881Z,16.91
2022-10-02T08:55:34.960Z,17.22
2022-10-02T08:58:52.430Z,17.51
2022-10-02T09:01:44.064Z,17.52
2022-10-02T09:04:44.035Z,17.61
2022-10-02T09:07:47.225Z,17.71
2022-10-02T09:11:01.867Z,17.89
2022-10-02T09:14:04.519Z,17.90
2022-10-02T09:16:44.915Z,17.91
2022-10-02T09:19:31.028Z,17.59
2022-10-02T09:22:08.017Z,17.67
2022-10-02T09:25:01.420Z,17.75
2022-10-02T09:27:59.773Z,18.20
2022-10-02T09:31:00.429Z,18.31
2022-10-02T09:34:13.274Z,18.50
2022-10-02T09:37:19.659Z,18.58
2022-10-02T09:40:20.716Z,18.70
2022-10-02T09:43:19.846Z,18.79
2022-10-02T09:46:20.498Z,18.75
2022-10-02T09:49:16.330Z,19.05
2022-10-02T09:52:10.286Z,18.67
2022-10-02T09:55:29.826Z,18.54
2022-10-02T09:58:31.827Z,18.16
2022-10-02T10:01:15.447Z,18.24
2022-10-02T10:04:37.980Z,17.94
2022-10-02T10:08:03.406Z,17.82
2022-10-02T10:10:52.558Z,18.25
2022-10-02T10:13:53.087Z,18.59
2022-10-02T10:16:57.491Z,18.30
2022-10-02T10:20:09.090Z,18.13
2022-10-02T10:22:57.990Z,18.17
2022-10-02T10:26:00.119Z,18.58
2022-10-02T10:28:59.815Z,19.06
2022-10-02T10:32:06.586Z,19.51
2022-10-02T10:34:59.838Z,19.73
2022-10-02T10:37:49.678Z,19.45
2022-10-02T10:40:29.906Z,19.12
2022-10-02T10:43:29.129Z,19.18
2022-10-02T10:46:15.758Z,19.70
2022-10-02T10:49:08.610Z,20.15
2022-10-02T10:51:41.707Z,20.13
2022-10-02T10:54:35.618Z,19.95
2022-10-02T10:57:12.028Z,20.10
2022-10-02T11:00:09.922Z,19.85
2022-10-02T11:03:12.029Z,19.91
2022-10-02T11:06:21.249Z,19.93
2022-10-02T11:09:25.868Z,19.60
2022-10-02T11:12:12.195Z,19.47
2022-10-02T11:14:54.696Z,19.38
2022-10-02T11:17:55.116Z,19.16
2022-10-02T11:21:06.749Z,19.02
2022-10-02T11:23:49.111Z,18.89
2022-10-02T11:26:43.807Z,18.84
2022-10-02T11:29:41.066Z,18.65
2022-10-02T11:32:19.047Z,18.62
2022-10-02T11:35:14.765Z,18.35
2022-10-02T11:38:03.648Z,18.19
2022-10-02T11:40:44.616Z,17.82
2022-10-02T11:43:26.180Z,17.70
2022-10-02T11:46:12.132Z,17.89
2022-10-02T11:49:21.672Z,18.15
2022-10-02T11:52:19.664Z,18.20
2022-10-02T11:55:00.145Z,18.06
2022-10-02T11:57:34.745Z,17.83
2022-10-02T12:00:14.980Z,17.44
2022-10-02T12:02:53.427Z,17.00
2022-10-02T12:05:37.892Z,16.96
2022-10-02T12:08:14.234Z,16.32
2022-10-02T12:10:51.575Z,15.69
2022-10-02T12:14:00.196Z,15.31
2022-10-02T12:16:56.233Z,15.16
2022-10-02T12:19:47.197Z,15.05
2022-10-02T12:22:23.009Z,14.90
2022-10-02T12:25:03.320Z,14.61
2022-10-02T12:27:45.567Z,14.62
2022-10-02T12:30:15.780Z,14.55
2022-10-02T12:33:00.522Z,14.61
2022-10-02T12:35:44.233Z,14.61
2022-10-02T12:38:32.663Z,14.73
2022-10-02T12:41:12.146Z,14.85
2022-10-02T12:44:21.788Z,15.30
2022-10-02T12:47:19.863Z,15.61
2022-10-02T12:50:01.942Z,15.81
2022-10-02T12:53:03.510Z,15.73
2022-10-02T12:55:59.311Z,15.92
2022-10-02T12:58:36.339Z,16.03
2022-10-02T13:01:42.239Z,16.36
2022-10-02T13:04:43.433Z,16.41
2022-10-02T13:07:46.711Z,16.43
2022-10-02T13:10:24.680Z,16.46
2022-10-02T13:13:15.199Z,16.57
2022-10-02T13:15:52.453Z,16.58
2022-10-02T13:18:40.296Z,16.77
2022-10-02T13:21:14.302Z,16.68
2022-10-02T13:23:53.209Z,16.86
2022-10-02T13:26:33.976Z,17.20
2022-10-02T13:29:24.821Z,17.03
2022-10-02T13:32:09.032Z,17.44
2022-10-02T13:34:57.629Z,17.38
2022-10-02T13:37:39.806Z,17.63
2022-10-02T13:40:26.289Z,18.06
2022-10-02T13:43:19.539Z,18.40
2022-10-02T13:45:54.975Z,18.38
2022-10-02T13:48:32.414Z,18.70
2022-10-02T13:51:06.610Z,18.92
2022-10-02T13:53:50.747Z,19.03
2022-10-02T13:56:29.019Z,19.12
2022-10-02T13:59:23.961Z,19.52
2022-10-02T14:02:17.045Z,19.82
2022-10-02T14:04:55.854Z,19.86
2022-10-02T14:07:47.581Z,19.83
2022-10-02T14:10:26.593Z,19.84
2022-10-02T14:13:04.075Z,20.06
2022-10-02T14:15:46.970Z,20.09
2022-10-02T14:18:37.603Z,19.84
2022-10-02T14:21:17.377Z,19.44
2022-10-02T14:24:06.295Z,19.56
2022-10-02T14:26:50.146Z,19.43
2022-10-02T14:29:39.510Z,19.34
2022-10-02T14:32:34.819Z,19.45
2022-10-02T14:35:31.056Z,19.51
2022-10-02T14:38:23.542Z,19.24
2022-10-02T14:40:53.346Z,19.12
2022-10-02T14:43:55.040Z,19.22
2022-10-02T14:46:36.309Z,19.18
2022-10-02T14:49:27.469Z,18.99
2022-10-02T14:52:28.046Z,18.87
2022-10-02T14:55:31.736Z,18.71
2022-10-02T14:58:31.963Z,18.49
2022-10-02T15:01:15.233Z,18.32
2022-10-02T15:04:04.448Z,18.24
2022-10-02T15:06:47.604Z,18.07
2022-10-02T15:09:20.281Z,17.49
2022-10-02T15:12:06.869Z,16.39
2022-10-02T15:14:42.915Z,16.32
2022-10-02T15:17:16.556Z,16.27
2022-10-02T15:19:50.128Z,16.07
2022-10-02T15:22:24.745Z,16.11
2022-10-02T15:24:56.713Z,16.02
2022-10-02T15:27:27.070Z,16.05
2022-10-02T15:30:17.976Z,16.26
2022-10-02T15:33:16.494Z,16.01
2022-10-02T15:36:18.575Z,16.08
2022-10-02T15:39:33.930Z,15.98
2022-10-02T15:42:06.066Z,15.90
2022-10-02T15:44:56.266Z,15.68
2022-10-02T15:47:39.440Z,15.56
2022-10-02T15:50:29.475Z,15.46
2022-10-02T15:53:17.960Z,15.42
2022-10-02T15:55:55.473Z,15.29
2022-10-02T15:58:39.978Z,15.18
2022-10-02T16:01:30.018Z,15.18
2022-10-02T16:04:06.720Z,14.98
2022-10-02T16:06:49.075Z,14.93
2022-10-02T16:09:34.859Z,14.68
2022-10-02T16:12:36.727Z,14.50
2022-10-02T16:15:16.742Z,14.35
2022-10-02T16:18:29.562Z,14.40
2022-10-02T16:21:12.577Z,14.46
2022-10-02T16:24:19.559Z,14.42
2022-10-02T16:27:31.670Z,14.43
2022-10-02T16:30:11.463Z,14.41
2022-10-02T16:32:53.935Z,14.33
2022-10-02T16:36:03.280Z,14.28
2022-10-02T16:38:44.273Z,14.13
2022-10-02T16:41:28.889Z,14.02
2022-10-02T16:44:09.207Z,13.97
2022-10-02T16:46:43.580Z,13.93
2022-10-02T16:49:22.741Z,13.99
2022-10-02T16:52:01.912Z,14.00
2022-10-02T16:54:38.499Z,13.94
2022-10-02T16:57:19.226Z,13.83
2022-10-02T16:59:53.105Z,13.73
2022-10-02T17:02:31.110Z,13.67
2022-10-02T17:05:02.855Z,13.79
2022-10-02T17:07:32.693Z,13.72
2022-10-02T17:10:07.786Z,13.69
2022-10-02T17:12:47.440Z,13.48
2022-10-02T17:15:21.338Z,13.43
2022-10-02T17:18:09.449Z,13.53
2022-10-02T17:20:44.113Z,13.51
2022-10-02T17:23:22.750Z,13.49
2022-10-02T17:25:57.600Z,13.38
2022-10-02T17:28:31.086Z,13.19
2022-10-02T17:31:24.345Z,13.16
2022-10-02T17:33:56.684Z,13.07
2022-10-02T17:36:29.634Z,13.11
2022-10-02T17:39:13.756Z,13.04
2022-10-02T17:41:51.228Z,13.05
2022-10-02T17:44:36.511Z,13.00
2022-10-02T17:47:28.072Z,13.03
2022-10-02T17:50:14.988Z,12.94
2022-10-02T17:52:45.797Z,12.99
2022-10-02T17:55:36.390Z,13.14
2022-10-02T17:58:12.868Z,13.11
2022-10-02T18:00:57.545Z,13.06
2022-10-02T18:03:45.389Z,13.03
2022-10-02T18:06:25.283Z,12.97
2022-10-02T18:09:23.108Z,13.04
2022-10-02T18:12:17.927Z,13.13
2022-10-02T18:15:08.835Z,13.01
2022-10-02T18:17:47.800Z,12.98
2022-10-02T18:20:24.313Z,13.13
2022-10-02T18:23:13.721Z,13.38
2022-10-02T18:25:54.681Z,13.36
2022-10-02T18:28:35.676Z,13.33
2022-10-02T18:31:33.178Z,13.40
2022-10-02T18:34:28.462Z,13.19
2022-10-02T18:37:11.054Z,13.21
2022-10-02T18:39:48.223Z,13.06
2022-10-02T18:42:34.439Z,12.95
2022-10-02T18:45:08.614Z,12.82
2022-10-02T18:47:44.332Z,12.76
2022-10-02T18:50:36.439Z,12.69
2022-10-02T18:53:22.442Z,12.72
2022-10-02T18:56:03.319Z,12.65
2022-10-02T18:58:51.554Z,12.70
2022-10-02T19:01:43.817Z,12.49
2022-10-02T19:04:27.589Z,12.35
2022-10-02T19:07:06.457Z,12.28
2022-10-02T19:09:36.208Z,12.37
2022-10-02T19:12:15.464Z,12.38
2022-10-02T19:14:44.985Z,12.39
2022-10-02T19:17:15.237Z,12.33
2022-10-02T19:19:42.835Z,12.30
2022-10-02T19:22:17.426Z,12.39
2022-10-02T19:24:48.916Z,12.21
2022-10-02T19:27:24.145Z,12.23
2022-10-02T19:29:56.496Z,12.18
2022-10-02T19:32:27.875Z,12.14
2022-10-02T19:35:07.037Z,12.20
2022-10-02T19:37:40.645Z,12.06
2022-10-02T19:40:16.061Z,12.00
2022-10-02T19:42:50.133Z,12.14
2022-10-02T19:45:25.235Z,12.06
2022-10-02T19:47:56.938Z,11.98
2022-10-02T19:50:28.379Z,12.05
2022-10-02T19:52:59.290Z,12.00
2022-10-02T19:55:30.981Z,11.97
2022-10-02T19:58:04.593Z,11.98
2022-10-02T20:00:38.539Z,12.05
2022-10-02T20:03:13.386Z,12.11
2022-10-02T20:05:42.903Z,12.05
2022-10-02T20:08:15.415Z,12.00
2022-10-02T20:10:49.073Z,11.98
2022-10-02T20:13:22.875Z,12.04
2022-10-02T20:15:58.105Z,12.01
2022-10-02T20:18:25.761Z,11.97
2022-10-02T20:20:57.717Z,12.01
2022-10-02T20:23:32.037Z,12.09
2022-10-02T20:26:04.028Z,12.06
2022-10-02T20:28:40.061Z,12.04
2022-10-02T20:31:18.340Z,12.02
2022-10-02T20:33:50.087Z,11.99
2022-10-02T20:36:22.111Z,12.04
2022-10-02T20:38:55.495Z,12.00
2022-10-02T20:41:27.292Z,11.95
2022-10-02T20:43:58.318Z,11.94
2022-10-02T20:46:45.694Z,11.89
2022-10-02T20:49:47.985Z,12.06
2022-10-02T20:52:41.913Z,12.04
2022-10-02T20:55:18.924Z,11.89
2022-10-02T20:58:22.662Z,11.81
2022-10-02T21:01:11.348Z,11.74
2022-10-02T21:03:54.368Z,11.76
2022-10-02T21:06:45.395Z,11.79
2022-10-02T21:09:31.647Z,11.80
2022-10-02T21:12:27.162Z,11.79
2022-10-02T21:15:18.917Z,11.94
2022-10-02T21:18:14.180Z,11.97
2022-10-02T21:21:18.996Z,11.86
2022-10-02T21:24:27.402Z,11.87
2022-10-02T21:27:16.985Z,11.79
2022-10-02T21:30:01.428Z,11.69
2022-10-02T21:32:58.660Z,11.63
2022-10-02T21:35:42.485Z,11.64
2022-10-02T21:38:34.291Z,11.59
2022-10-02T21:41:43.875Z,11.76
2022-10-02T21:44:50.916Z,11.94
2022-10-02T21:47:49.652Z,11.91
2022-10-02T21:50:56.265Z,11.86
2022-10-02T21:53:59.394Z,11.82
2022-10-02T21:57:01.149Z,11.88
2022-10-02T22:00:01.998Z,11.82
2022-10-02T22:03:03.878Z,11.78
2022-10-02T22:05:56.591Z,11.71
2022-10-02T22:08:31.204Z,11.73
2022-10-02T22:11:10.803Z,11.80
2022-10-02T22:13:39.479Z,11.72
2022-10-02T22:16:21.065Z,11.76
2022-10-02T22:18:54.680Z,11.66
2022-10-02T22:21:44.753Z,11.74
2022-10-02T22:24:22.608Z,11.55
2022-10-02T22:27:20.770Z,11.63
2022-10-02T22:29:50.311Z,11.63
2022-10-02T22:32:48.869Z,11.58
2022-10-02T22:35:26.946Z,11.66
2022-10-02T22:38:08.815Z,11.69
2022-10-02T22:40:46.796Z,11.74
2022-10-02T22:43:32.027Z,11.75
2022-10-02T22:46:05.664Z,11.67
2022-10-02T22:48:40.477Z,11.70
2022-10-02T22:51:17.857Z,11.81
2022-10-02T22:53:49.901Z,11.87
2022-10-02T22:56:25.694Z,11.86
2022-10-02T22:59:05.501Z,11.89
2022-10-02T23:01:43.304Z,11.87
2022-10-02T23:04:21.917Z,11.84
2022-10-02T23:06:52.581Z,11.85
2022-10-02T23:09:27.613Z,11.92
2022-10-02T23:12:04.452Z,12.02
2022-10-02T23:14:41.395Z,11.98
2022-10-02T23:17:15.474Z,12.02
2022-10-02T23:19:46.791Z,12.02
2022-10-02T23:22:24.564Z,12.04
2022-10-02T23:24:57.722Z,12.01
2022-10-02T23:27:31.650Z,11.94
2022-10-02T23:30:04.729Z,11.97
2022-10-02T23:32:40.646Z,12.00
2022-10-02T23:35:14.471Z,12.03
2022-10-02T23:37:48.261Z,11.93
2022-10-02T23:40:27.011Z,11.77
2022-10-02T23:43:02.378Z,11.82
2022-10-02T23:45:38.901Z,11.75
2022-10-02T23:48:10.087Z,11.76
2022-10-02T23:50:49.744Z,11.83
2022-10-02T23:53:39.100Z,11.75
2022-10-02T23:56:22.168Z,11.67
2022-10-02T23:59:00.010Z,11.66
